Time;durP1;ratioP1;P1;durP2;ratioP2;P2;SDS_P1;SDS_P2;PMS_P1;PMS_P2;Temp;Humidity;BMP_temperature;BMP_pressure;BME280_temperature;BME280_humidity;BME280_pressure;Samples;Min_cycle;Max_cycle;Signal;HPM_P1;HPM_P2
2022/05/13 00:00:24;;;;;;;14.45;6.30;;;;;;;15.98;100.00;99476.08;1728606;81;21419;-50
2022/05/13 00:02:51;;;;;;;17.48;7.67;;;;;;;15.94;100.00;99482.70;1728409;81;21065;-50
2022/05/13 00:05:17;;;;;;;16.67;8.10;;;;;;;15.86;100.00;99481.91;1728239;81;21396;-50
2022/05/13 00:07:43;;;;;;;16.55;8.43;;;;;;;15.82;100.00;99490.41;1702309;81;21639;-49
2022/05/13 00:10:11;;;;;;;14.55;6.20;;;;;;;15.75;100.00;99484.55;1727865;81;20973;-50
2022/05/13 00:12:40;;;;;;;17.07;7.20;;;;;;;15.71;100.00;99487.61;1728910;81;21292;-49
2022/05/13 00:15:11;;;;;;;11.43;6.65;;;;;;;15.66;100.00;99495.20;1730537;81;21472;-48
2022/05/13 00:17:38;;;;;;;17.60;6.50;;;;;;;15.61;100.00;99498.75;1729175;81;21639;-49
2022/05/13 00:20:07;;;;;;;18.95;6.87;;;;;;;15.57;100.00;99500.81;1730649;81;21340;-50
2022/05/13 00:22:34;;;;;;;23.32;7.72;;;;;;;15.53;100.00;99503.35;1731295;81;20942;-51
2022/05/13 00:25:00;;;;;;;12.37;7.30;;;;;;;15.46;100.00;99508.84;1731102;81;20947;-50
2022/05/13 00:27:26;;;;;;;17.62;7.85;;;;;;;15.46;100.00;99508.84;1730306;81;20915;-51
2022/05/13 00:29:53;;;;;;;12.63;6.72;;;;;;;15.37;100.00;99512.22;1730671;81;21468;-50
2022/05/13 00:32:19;;;;;;;15.72;5.85;;;;;;;15.31;100.00;99511.31;1731426;81;20971;-51
2022/05/13 00:34:48;;;;;;;10.08;5.22;;;;;;;15.22;100.00;99518.25;1731239;81;20946;-51
2022/05/13 00:37:14;;;;;;;14.28;6.00;;;;;;;15.14;100.00;99530.97;1731389;81;21260;-50
2022/05/13 00:39:40;;;;;;;10.90;4.65;;;;;;;15.08;100.00;99528.70;1732049;81;21061;-50
2022/05/13 00:42:10;;;;;;;7.53;4.17;;;;;;;15.01;100.00;99520.62;1730929;81;21571;-49
2022/05/13 00:44:37;;;;;;;11.38;4.45;;;;;;;14.94;100.00;99529.28;1730968;81;20935;-49
2022/05/13 00:47:05;;;;;;;8.15;3.98;;;;;;;14.87;100.00;99535.63;1730278;81;20959;-50
2022/05/13 00:49:32;;;;;;;8.10;3.20;;;;;;;14.80;100.00;99539.70;1730280;81;20893;-49
2022/05/13 00:52:00;;;;;;;9.43;3.30;;;;;;;14.74;100.00;99536.07;1701819;82;20978;-48
2022/05/13 00:54:27;;;;;;;10.85;4.22;;;;;;;14.68;100.00;99540.56;1731465;81;21742;-49
2022/05/13 00:56:54;;;;;;;7.33;2.27;;;;;;;14.59;100.00;99542.06;1729134;81;21010;-49
2022/05/13 00:59:22;;;;;;;7.17;2.35;;;;;;;14.51;100.00;99544.91;1730029;81;21472;-49
2022/05/13 01:01:49;;;;;;;6.03;1.82;;;;;;;14.43;100.00;99542.72;1702067;81;21140;-50
2022/05/13 01:04:17;;;;;;;8.20;1.82;;;;;;;14.36;100.00;99551.71;1728755;81;21477;-50
2022/05/13 01:06:50;;;;;;;10.10;1.50;;;;;;;14.34;100.00;99556.84;1728460;81;22075;-49
2022/05/13 01:09:18;;;;;;;4.67;1.50;;;;;;;14.29;100.00;99551.71;1727583;81;21042;-49
2022/05/13 01:11:44;;;;;;;4.75;1.35;;;;;;;14.27;100.00;99547.39;1727406;81;21069;-49
2022/05/13 01:14:19;;;;;;;6.08;1.10;;;;;;;14.24;100.00;99551.16;1729112;81;21015;-48
2022/05/13 01:19:30;;;;;;;;;;;;;;;14.10;100.00;99549.86;1732495;81;21534;-50
2022/05/13 01:21:58;;;;;;;2.98;1.60;;;;;;;13.98;100.00;99552.88;1729916;82;20195;-49
2022/05/13 01:24:24;;;;;;;6.17;0.90;;;;;;;13.89;100.00;99549.89;1728991;82;21094;-49
2022/05/13 01:26:51;;;;;;;3.27;1.00;;;;;;;13.82;100.00;99548.08;1728303;81;21358;-48
2022/05/13 01:29:17;;;;;;;1.98;0.72;;;;;;;13.76;100.00;99547.12;1703327;82;21554;-49
2022/05/13 01:31:44;;;;;;;2.87;0.80;;;;;;;13.73;100.00;99547.31;1728102;81;21149;-50
2022/05/13 01:34:12;;;;;;;3.40;0.70;;;;;;;13.71;100.00;99545.19;1728742;81;21467;-50
2022/05/13 01:36:39;;;;;;;7.80;0.70;;;;;;;13.73;100.00;99554.56;1729897;81;21022;-49
2022/05/13 01:39:07;;;;;;;1.32;0.93;;;;;;;13.71;100.00;99549.73;1735153;81;21034;-50
2022/05/13 01:41:33;;;;;;;10.30;0.70;;;;;;;13.71;100.00;99554.66;1736434;81;21663;-49
2022/05/13 01:43:59;;;;;;;2.55;0.70;;;;;;;13.68;100.00;99554.88;1736672;81;21128;-49
2022/05/13 01:46:26;;;;;;;7.40;0.90;;;;;;;13.58;100.00;99557.29;1736610;81;21045;-49
2022/05/13 01:48:53;;;;;;;2.90;1.17;;;;;;;13.46;100.00;99558.05;1735387;81;21109;-49
2022/05/13 01:51:20;;;;;;;2.37;0.80;;;;;;;13.38;100.00;99558.14;1653301;85;21073;-49
2022/05/13 01:53:47;;;;;;;1.62;0.65;;;;;;;13.29;100.00;99560.94;1736149;81;21053;-49
2022/05/13 01:56:14;;;;;;;1.70;0.60;;;;;;;13.21;100.00;99560.07;1735069;81;21077;-49
2022/05/13 01:58:40;;;;;;;1.20;0.62;;;;;;;13.14;100.00;99560.55;1736089;81;21085;-49
2022/05/13 02:01:07;;;;;;;1.92;0.70;;;;;;;13.07;100.00;99557.80;1736173;81;21142;-49
2022/05/13 02:03:46;;;;;;;8.45;0.68;;;;;;;13.02;100.00;99566.66;1737550;81;20979;-49
2022/05/13 02:06:22;;;;;;;3.33;0.60;;;;;;;12.95;100.00;99572.92;1737351;81;21044;-49
2022/05/13 02:08:50;;;;;;;3.45;0.72;;;;;;;12.88;100.00;99569.73;1736126;81;21226;-49
2022/05/13 02:11:18;;;;;;;8.23;0.80;;;;;;;12.79;100.00;99578.86;1737411;81;20991;-49
2022/05/13 02:13:46;;;;;;;10.10;1.27;;;;;;;12.72;100.00;99582.90;1735608;81;21049;-48
2022/05/13 02:16:13;;;;;;;1.77;0.70;;;;;;;12.66;100.00;99583.27;1735012;81;21078;-49
2022/05/13 02:18:40;;;;;;;3.50;0.80;;;;;;;12.60;100.00;99582.27;1736423;81;20994;-49
2022/05/13 02:21:06;;;;;;;2.72;1.15;;;;;;;12.56;100.00;99587.47;1736657;81;21131;-49
2022/05/13 02:23:33;;;;;;;4.00;1.00;;;;;;;12.53;100.00;99603.84;1735610;81;21038;-48
2022/05/13 02:26:04;;;;;;;2.72;0.80;;;;;;;12.50;100.00;99600.86;1735567;81;21079;-49
2022/05/13 02:28:32;;;;;;;3.70;0.90;;;;;;;12.47;100.00;99599.20;1735190;81;21089;-48
2022/05/13 02:30:59;;;;;;;2.65;0.80;;;;;;;12.45;100.00;99601.59;1736948;81;21093;-49
2022/05/13 02:33:27;;;;;;;2.95;1.02;;;;;;;12.40;100.00;99603.22;1736360;81;21262;-49
2022/05/13 02:35:54;;;;;;;12.58;1.10;;;;;;;12.35;100.00;99609.83;1735279;81;21413;-49
2022/05/13 02:38:20;;;;;;;3.80;0.90;;;;;;;12.29;100.00;99606.14;1738203;81;21029;-48
2022/05/13 02:43:32;;;;;;;3.10;0.80;;;;;;;12.15;100.00;99608.77;1740257;81;21045;-49
2022/05/13 02:45:59;;;;;;;3.60;0.90;;;;;;;12.09;100.00;99607.27;1739776;81;21851;-49
2022/05/13 02:48:26;;;;;;;2.90;0.80;;;;;;;12.05;100.00;99608.41;1740419;80;21662;-49
2022/05/13 02:50:52;;;;;;;1.87;0.62;;;;;;;12.03;100.00;99603.57;1739252;81;21446;-49
2022/05/13 02:53:19;;;;;;;4.15;0.93;;;;;;;11.99;100.00;99609.61;1740509;81;21050;-48
2022/05/13 02:55:45;;;;;;;2.77;0.80;;;;;;;11.99;100.00;99609.61;1740401;81;21085;-49
2022/05/13 02:58:11;;;;;;;2.83;1.20;;;;;;;11.99;100.00;99607.42;1740281;80;21599;-49
2022/05/13 03:00:38;;;;;;;2.72;0.70;;;;;;;11.98;100.00;99607.02;1740391;81;21061;-49
2022/05/13 03:03:05;;;;;;;3.60;0.90;;;;;;;11.96;100.00;99611.63;1740326;81;21046;-49
2022/05/13 03:05:34;;;;;;;3.83;0.90;;;;;;;11.91;100.00;99610.52;1741578;81;21013;-48
2022/05/13 03:08:01;;;;;;;4.55;0.70;;;;;;;11.89;100.00;99616.97;1743670;81;21084;-48
2022/05/13 03:10:29;;;;;;;4.58;1.00;;;;;;;11.88;100.00;99617.92;1742363;80;21507;-48
2022/05/13 03:12:57;;;;;;;3.83;1.12;;;;;;;11.87;100.00;99614.36;1741185;81;21282;-48
2022/05/13 03:15:26;;;;;;;5.80;1.00;;;;;;;11.87;100.00;99620.23;1740673;81;21964;-49
2022/05/13 03:17:55;;;;;;;5.78;0.90;;;;;;;11.84;100.00;99621.26;1742387;81;21425;-48
2022/05/13 03:20:22;;;;;;;4.83;0.80;;;;;;;11.82;100.00;99626.37;1742797;81;21413;-48
2022/05/13 03:22:51;;;;;;;3.62;1.30;;;;;;;11.82;100.00;99616.45;1742633;81;21648;-48
2022/05/13 03:25:19;;;;;;;4.20;1.10;;;;;;;11.84;100.00;99629.34;1740478;81;21370;-49
2022/05/13 03:27:46;;;;;;;2.83;1.37;;;;;;;11.83;100.00;99628.95;1741247;81;21318;-49
2022/05/13 03:30:16;;;;;;;4.22;1.70;;;;;;;11.82;100.00;99629.06;1742616;81;20953;-48
2022/05/13 03:32:42;;;;;;;5.42;1.52;;;;;;;11.85;100.00;99626.17;1742902;81;20927;-48
2022/05/13 03:35:11;;;;;;;7.42;1.77;;;;;;;11.91;100.00;99626.70;1742397;81;21077;-49
2022/05/13 03:37:37;;;;;;;5.53;1.30;;;;;;;11.97;100.00;99632.25;1742474;81;20938;-49
2022/05/13 03:40:05;;;;;;;4.80;2.52;;;;;;;12.01;100.00;99630.63;1738322;81;21429;-49
2022/05/13 03:42:31;;;;;;;7.45;2.83;;;;;;;12.07;100.00;99634.83;1738037;81;20950;-48
2022/05/13 03:44:58;;;;;;;13.18;3.52;;;;;;;12.17;100.00;99632.45;1738656;81;21452;-49
2022/05/13 03:47:24;;;;;;;6.30;3.70;;;;;;;12.27;100.00;99632.33;1738452;81;21138;-49
2022/05/13 03:49:50;;;;;;;11.63;4.92;;;;;;;12.37;100.00;99630.86;1737135;81;21097;-48
2022/05/13 03:52:17;;;;;;;9.53;5.55;;;;;;;12.48;100.00;99628.42;1738045;81;21511;-48
2022/05/13 03:54:43;;;;;;;11.18;5.15;;;;;;;12.60;100.00;99636.27;1736455;81;21751;-48
2022/05/13 03:57:10;;;;;;;13.15;5.22;;;;;;;12.69;100.00;99640.66;1736078;81;21053;-49
2022/05/13 03:59:37;;;;;;;11.30;5.60;;;;;;;12.80;100.00;99647.66;1736186;81;21564;-49
2022/05/13 04:02:04;;;;;;;15.00;4.55;;;;;;;12.91;100.00;99642.98;1735786;81;21144;-48
2022/05/13 04:08:56;;;;;;;10.93;4.47;;;;;;;13.01;100.00;99648.23;1736000;81;21494;-49
2022/05/13 04:09:44;;;;;;;15.65;5.83;;;;;;;13.20;100.00;99654.75;1738317;81;21508;-49
2022/05/13 04:17:43;;;;;;;12.33;6.85;;;;;;;13.62;100.00;99653.95;1736500;81;21464;-48
2022/05/13 04:20:10;;;;;;;13.55;6.65;;;;;;;13.74;100.00;99646.92;1735789;81;21113;-48
2022/05/13 04:22:36;;;;;;;16.20;7.12;;;;;;;13.85;100.00;99653.89;1736363;81;21757;-48
2022/05/13 04:25:04;;;;;;;14.28;6.55;;;;;;;13.90;100.00;99659.39;1736205;81;21090;-48
2022/05/13 04:27:30;;;;;;;13.15;6.47;;;;;;;13.94;100.00;99657.37;1737167;81;21022;-48
2022/05/13 04:29:57;;;;;;;17.37;5.65;;;;;;;13.99;100.00;99658.80;1735153;81;21050;-48
2022/05/13 04:32:23;;;;;;;11.88;5.67;;;;;;;14.03;100.00;99654.92;1737017;82;21053;-48
2022/05/13 04:34:49;;;;;;;15.80;6.25;;;;;;;14.09;100.00;99653.67;1736860;82;21497;-47
2022/05/13 04:37:16;;;;;;;18.50;6.85;;;;;;;14.17;100.00;99665.36;1737169;82;21190;-48
2022/05/13 04:39:42;;;;;;;17.25;7.12;;;;;;;14.25;100.00;99654.91;1737112;82;21022;-49
2022/05/13 04:44:56;;;;;;;20.10;6.25;;;;;;;14.35;100.00;99666.88;1736555;81;21026;-49
2022/05/13 04:50:08;;;;;;;16.12;5.62;;;;;;;14.47;100.00;99660.69;1735768;81;21954;-48
2022/05/13 04:52:34;;;;;;;12.30;5.10;;;;;;;14.54;100.00;99661.17;1737418;81;20987;-49
2022/05/13 04:55:01;;;;;;;16.55;5.45;;;;;;;14.60;100.00;99668.89;1738796;81;20978;-50
2022/05/13 04:57:28;;;;;;;13.93;6.05;;;;;;;14.64;100.00;99663.63;1737534;80;21106;-50
2022/05/13 04:59:54;;;;;;;14.83;6.28;;;;;;;14.71;100.00;99660.93;1736632;81;21714;-49
2022/05/13 05:02:20;;;;;;;6.20;3.77;;;;;;;14.80;100.00;99663.51;1734381;81;21158;-50
2022/05/13 05:04:46;;;;;;;10.50;3.70;;;;;;;14.88;100.00;99664.73;1734383;81;21093;-50
2022/05/13 05:07:13;;;;;;;8.90;3.77;;;;;;;14.94;100.00;99665.67;1735696;81;21564;-49
2022/05/13 05:09:39;;;;;;;8.18;2.83;;;;;;;14.99;100.00;99665.34;1735716;81;21065;-50
2022/05/13 05:12:09;;;;;;;8.63;2.67;;;;;;;15.04;100.00;99669.98;1735683;81;21041;-50
2022/05/13 05:14:36;;;;;;;11.45;2.87;;;;;;;15.10;100.00;99672.27;1735762;81;22162;-50
2022/05/13 05:17:03;;;;;;;4.55;2.65;;;;;;;15.15;100.00;99668.26;1735645;81;21085;-50
2022/05/13 05:19:29;;;;;;;6.15;2.60;;;;;;;15.24;100.00;99675.38;1736416;81;21097;-50
2022/05/13 05:21:55;;;;;;;6.20;2.02;;;;;;;15.30;100.00;99680.41;1735299;81;21085;-51
2022/05/13 05:24:21;;;;;;;5.40;1.77;;;;;;;15.46;100.00;99668.88;1735422;81;21549;-49
2022/05/13 05:26:48;;;;;;;6.92;1.98;;;;;;;15.46;100.00;99668.88;1736124;81;21147;-50
2022/05/13 05:29:16;;;;;;;10.00;1.77;;;;;;;15.57;100.00;99669.53;1735267;81;21046;-50
2022/05/13 05:31:42;;;;;;;5.25;1.10;;;;;;;15.66;100.00;99663.42;1737159;81;21065;-50
2022/05/13 05:34:11;;;;;;;8.95;1.35;;;;;;;15.75;100.00;99657.34;1736763;81;21089;-50
2022/05/13 05:36:38;;;;;;;5.87;2.00;;;;;;;15.83;100.00;99661.74;1676146;84;21089;-50
2022/05/13 05:39:04;;;;;;;4.87;1.75;;;;;;;15.91;100.00;99653.92;1738469;81;21908;-50
2022/05/13 05:41:32;;;;;;;3.25;1.05;;;;;;;16.01;100.00;99653.64;1744952;81;21462;-50
2022/05/13 05:43:58;;;;;;;3.35;0.80;;;;;;;16.11;100.00;99648.42;1744450;81;21163;-50
2022/05/13 05:46:25;;;;;;;2.77;0.70;;;;;;;16.21;100.00;99641.34;1745100;81;21041;-50
2022/05/13 05:48:51;;;;;;;5.63;0.80;;;;;;;16.32;100.00;99650.08;1744495;81;21380;-50
2022/05/13 05:51:18;;;;;;;3.95;0.50;;;;;;;16.38;100.00;99654.56;1745544;81;21159;-50
2022/05/13 05:59:15;;;;;;;1.62;0.50;;;;;;;16.50;100.00;99667.74;1745815;81;20962;-51
2022/05/13 06:01:41;;;;;;;1.07;0.37;;;;;;;16.49;100.00;99668.72;1746271;81;20906;-51
2022/05/13 06:04:08;;;;;;;2.90;0.50;;;;;;;16.45;100.00;99680.29;1746915;81;21806;-50
2022/05/13 06:06:34;;;;;;;1.40;0.40;;;;;;;16.42;100.00;99684.58;1746691;81;20919;-51
2022/05/13 06:09:01;;;;;;;2.00;0.30;;;;;;;16.41;100.00;99691.02;1746544;81;20899;-51
2022/05/13 06:11:28;;;;;;;1.20;0.45;;;;;;;16.40;100.00;99697.43;1747208;81;20950;-50
2022/05/13 06:13:55;;;;;;;3.40;0.40;;;;;;;16.38;100.00;99690.36;1746862;81;21569;-50
2022/05/13 06:16:22;;;;;;;3.47;0.40;;;;;;;16.37;100.00;99692.21;1747249;81;20931;-50
2022/05/13 06:18:48;;;;;;;3.77;0.37;;;;;;;16.39;100.00;99689.39;1747554;81;21376;-50
2022/05/13 06:21:15;;;;;;;5.40;0.40;;;;;;;16.42;100.00;99691.86;1747660;81;20930;-50
2022/05/13 06:23:41;;;;;;;0.95;0.40;;;;;;;16.41;100.00;99690.15;1747783;81;21420;-51
2022/05/13 06:26:08;;;;;;;1.90;0.30;;;;;;;16.40;100.00;99696.07;1747342;81;20902;-51
2022/05/13 06:28:34;;;;;;;5.33;0.23;;;;;;;16.40;100.00;99693.84;1747068;81;21046;-50
2022/05/13 06:31:01;;;;;;;1.55;0.28;;;;;;;16.42;100.00;99695.44;1746349;81;20982;-50
2022/05/13 06:33:28;;;;;;;3.83;0.50;;;;;;;16.44;100.00;99690.77;1747373;81;21439;-51
2022/05/13 06:35:54;;;;;;;4.17;0.23;;;;;;;16.43;100.00;99695.83;1745698;81;20934;-51
2022/05/13 06:38:22;;;;;;;1.17;0.30;;;;;;;16.45;100.00;99690.28;1746497;81;21540;-51
2022/05/13 06:40:52;;;;;;;0.45;0.20;;;;;;;16.49;100.00;99695.89;1746778;81;21491;-52
2022/05/13 06:43:19;;;;;;;1.35;0.30;;;;;;;16.53;100.00;99695.53;1746864;81;20892;-51
2022/05/13 06:45:45;;;;;;;1.60;0.20;;;;;;;16.56;100.00;99696.68;1747243;81;21402;-51
2022/05/13 06:48:13;;;;;;;2.83;0.13;;;;;;;16.60;100.00;99698.66;1746990;81;21433;-51
2022/05/13 06:53:43;;;;;;;2.23;0.20;;;;;;;16.72;100.00;99684.70;1793809;78;26547;-51
2022/05/13 06:56:09;;;;;;;0.37;0.20;;;;;;;16.74;100.00;99697.20;1768623;80;21053;-52
2022/05/13 06:58:37;;;;;;;0.35;0.20;;;;;;;16.78;100.00;99692.39;1763059;80;21854;-52
2022/05/13 07:01:03;;;;;;;0.78;0.33;;;;;;;16.82;100.00;99692.55;1765232;80;21863;-52
2022/05/13 07:03:30;;;;;;;0.60;0.30;;;;;;;16.86;100.00;99689.47;1674308;84;21041;-51
2022/05/13 07:05:57;;;;;;;1.00;0.40;;;;;;;16.89;100.00;99695.18;1705280;83;21496;-53
2022/05/13 07:08:23;;;;;;;2.67;0.30;;;;;;;16.93;100.00;99697.54;1706043;83;21045;-51
2022/05/13 07:10:50;;;;;;;1.90;0.30;;;;;;;16.95;100.00;99694.72;1707987;83;21455;-52
2022/05/13 07:13:16;;;;;;;1.62;0.35;;;;;;;16.97;100.00;99699.55;1679787;84;20986;-51
2022/05/13 07:15:43;;;;;;;0.75;0.30;;;;;;;17.03;100.00;99687.71;1704640;83;21315;-52
2022/05/13 07:18:10;;;;;;;3.17;0.40;;;;;;;17.12;100.00;99692.95;1706068;82;21068;-52
2022/05/13 07:20:36;;;;;;;1.42;0.40;;;;;;;17.19;100.00;99696.92;1709206;83;21129;-51
2022/05/13 07:23:03;;;;;;;1.27;0.40;;;;;;;17.22;100.00;99702.14;1676726;83;22602;-53
2022/05/13 07:25:31;;;;;;;2.33;0.55;;;;;;;17.26;100.00;99705.02;1708788;83;21717;-52
2022/05/13 07:27:58;;;;;;;3.45;0.50;;;;;;;17.26;100.00;99690.06;1705474;83;21456;-51
2022/05/13 07:30:24;;;;;;;4.22;0.40;;;;;;;17.25;100.00;99700.56;1708551;83;21468;-51
2022/05/13 07:32:52;;;;;;;1.47;0.40;;;;;;;17.26;100.00;99702.80;1710976;83;21434;-53
2022/05/13 07:35:19;;;;;;;1.37;0.53;;;;;;;17.27;100.00;99704.01;1677267;83;21129;-53
2022/05/13 07:37:45;;;;;;;4.20;0.53;;;;;;;17.28;100.00;99699.44;1707854;83;21093;-51
2022/05/13 07:42:57;;;;;;;2.05;0.55;;;;;;;17.34;100.00;99712.59;1705109;83;21029;-52
2022/05/13 07:45:23;;;;;;;1.17;0.50;;;;;;;17.34;100.00;99703.94;1676973;84;21041;-53
2022/05/13 07:47:50;;;;;;;1.25;0.40;;;;;;;17.35;100.00;99704.29;1706780;83;21456;-52
2022/05/13 07:50:16;;;;;;;2.90;0.40;;;;;;;17.40;100.00;99705.31;1679488;84;21650;-53
2022/05/13 07:52:43;;;;;;;1.47;0.33;;;;;;;17.42;100.00;99709.28;1706140;83;21053;-52
2022/05/13 07:55:11;;;;;;;1.87;0.40;;;;;;;17.40;100.00;99704.82;1760565;81;22154;-52
2022/05/13 07:57:39;;;;;;;2.02;0.60;;;;;;;17.42;100.00;99703.84;1759835;81;21911;-52
2022/05/13 08:00:26;;;;;;;3.22;0.50;;;;;;;17.45;100.00;99704.94;1758968;81;21884;-52
2022/05/13 08:02:59;;;;;;;4.25;0.50;;;;;;;17.51;100.00;99712.66;1760237;81;20888;-52
2022/05/13 08:05:27;;;;;;;1.20;0.40;;;;;;;17.57;100.00;99708.95;1760314;81;20891;-52
2022/05/13 08:08:04;;;;;;;1.87;0.57;;;;;;;17.67;100.00;99707.78;1713633;82;21026;-52
2022/05/13 08:10:31;;;;;;;0.60;0.30;;;;;;;17.74;100.00;99700.88;1711002;83;21460;-52
2022/05/13 08:12:57;;;;;;;1.55;0.30;;;;;;;17.78;100.00;99715.95;1758529;81;22102;-52
2022/05/13 08:15:23;;;;;;;0.70;0.30;;;;;;;17.82;100.00;99715.23;1757514;81;21070;-52
2022/05/13 08:17:50;;;;;;;0.70;0.30;;;;;;;17.84;100.00;99710.55;1760020;81;20942;-52
2022/05/13 08:20:16;;;;;;;0.35;0.20;;;;;;;17.83;100.00;99702.88;1672137;84;21670;-54
2022/05/13 08:22:45;;;;;;;0.57;0.20;;;;;;;17.84;100.00;99705.97;1757820;81;21032;-53
2022/05/13 08:25:11;;;;;;;1.87;0.55;;;;;;;17.84;100.00;99699.66;1757254;81;21674;-52
2022/05/13 08:27:39;;;;;;;2.45;0.28;;;;;;;17.87;100.00;99698.90;1758226;81;21014;-53
2022/05/13 08:30:09;;;;;;;3.72;0.50;;;;;;;17.92;100.00;99700.78;1759210;80;21082;-51
2022/05/13 08:32:35;;;;;;;0.90;0.40;;;;;;;17.96;100.00;99687.28;1757551;81;21074;-53
2022/05/13 08:35:02;;;;;;;0.75;0.50;;;;;;;18.02;100.00;99685.45;1757581;81;21099;-52
2022/05/13 08:37:29;;;;;;;1.00;0.50;;;;;;;18.08;100.00;99689.03;1758694;81;21146;-52
2022/05/13 08:40:00;;;;;;;3.87;0.40;;;;;;;18.12;100.00;99690.51;1757367;81;21675;-53
2022/05/13 08:42:38;;;;;;;0.50;0.30;;;;;;;18.18;100.00;99697.84;1758471;81;21065;-52
2022/05/13 08:45:07;;;;;;;3.08;0.50;;;;;;;18.25;100.00;99700.44;1760524;81;21354;-52
2022/05/13 08:47:54;;;;;;;2.40;0.20;;;;;;;18.31;100.00;99705.38;1734072;81;20878;-52
2022/05/13 08:50:37;;;;;;;0.57;0.20;;;;;;;18.34;100.00;99706.50;1671835;85;21278;-53
2022/05/13 08:53:34;;;;;;;0.30;0.20;;;;;;;18.30;100.00;99696.83;1758871;81;21403;-53
2022/05/13 08:56:06;;;;;;;1.60;0.20;;;;;;;18.21;100.00;99686.67;1756349;81;20893;-53
2022/05/13 08:58:38;;;;;;;1.00;0.20;;;;;;;18.12;100.00;99701.90;1655858;85;21266;-52
2022/05/13 09:01:09;;;;;;;0.60;0.20;;;;;;;18.07;100.00;99688.66;1755117;81;20881;-53
2022/05/13 09:03:41;;;;;;;0.90;0.10;;;;;;;18.06;100.00;99689.64;1733604;81;21566;-53
2022/05/13 09:06:19;;;;;;;0.40;0.10;;;;;;;18.01;100.00;99686.93;1757062;81;20892;-53
2022/05/13 09:08:46;;;;;;;0.72;0.20;;;;;;;18.02;100.00;99690.03;1755759;81;21426;-54
2022/05/13 09:11:22;;;;;;;0.53;0.10;;;;;;;17.99;100.00;99689.77;1670890;83;21836;-53
2022/05/13 09:14:03;;;;;;;1.52;0.10;;;;;;;17.97;100.00;99688.15;1756376;81;21450;-54
2022/05/13 09:17:06;;;;;;;0.40;0.10;;;;;;;17.91;100.00;99682.70;1670141;85;21385;-52
2022/05/13 09:20:06;;;;;;;2.27;0.13;;;;;;;17.89;100.00;99687.89;1756118;81;20947;-53
2022/05/13 09:22:36;;;;;;;3.33;0.15;;;;;;;17.88;100.00;99684.30;1755339;81;20951;-53
2022/05/13 09:25:04;;;;;;;0.60;0.10;;;;;;;17.90;100.00;99667.84;1750638;81;20941;-52
2022/05/13 09:27:49;;;;;;;1.92;0.17;;;;;;;17.94;100.00;99664.77;1756604;81;21040;-55
2022/05/13 09:30:20;;;;;;;0.68;0.20;;;;;;;18.03;100.00;99674.91;1753311;81;21415;-53
2022/05/13 09:32:47;;;;;;;2.62;0.10;;;;;;;18.13;100.00;99675.91;1671844;83;20959;-53
2022/05/13 09:35:36;;;;;;;3.92;0.10;;;;;;;18.21;100.00;99675.28;1754419;81;20860;-53
2022/05/13 09:38:13;;;;;;;0.53;0.10;;;;;;;18.28;100.00;99677.04;1756121;81;20868;-52
2022/05/13 09:40:40;;;;;;;0.40;0.10;;;;;;;18.35;100.00;99668.73;1756705;81;21449;-53
2022/05/13 09:43:07;;;;;;;2.33;0.20;;;;;;;18.44;100.00;99669.34;1756627;81;21092;-55
2022/05/13 09:45:33;;;;;;;1.75;0.10;;;;;;;18.53;100.00;99671.31;1757682;81;20955;-53
2022/05/13 09:48:18;;;;;;;0.75;0.10;;;;;;;18.60;100.00;99663.52;1755681;81;21375;-53
2022/05/13 09:50:52;;;;;;;1.05;0.20;;;;;;;18.64;100.00;99667.22;1755622;81;21478;-53
2022/05/13 09:53:27;;;;;;;0.55;0.10;;;;;;;18.68;100.00;99666.48;1729395;81;21071;-53
2022/05/13 09:55:56;;;;;;;0.62;0.10;;;;;;;18.71;100.00;99665.75;1755345;81;22652;-54
2022/05/13 09:58:27;;;;;;;0.20;0.10;;;;;;;18.75;100.00;99664.48;1756249;81;20897;-54
2022/05/13 10:00:58;;;;;;;0.68;0.10;;;;;;;18.82;100.00;99662.09;1756554;81;20894;-53
2022/05/13 10:03:36;;;;;;;0.40;0.10;;;;;;;18.82;100.00;99661.61;1750960;81;21013;-54
2022/05/13 10:06:12;;;;;;;0.82;0.10;;;;;;;18.87;100.00;99657.15;1752920;81;21128;-54
2022/05/13 10:08:55;;;;;;;0.40;0.20;;;;;;;18.95;100.00;99672.86;1667845;84;21298;-54
2022/05/13 10:14:33;;;;;;;2.00;0.10;;;;;;;18.92;100.00;99654.02;1756022;81;20942;-53
2022/05/13 10:17:10;;;;;;;0.50;0.30;;;;;;;18.88;100.00;99652.90;1756551;81;20896;-54
2022/05/13 10:20:00;;;;;;;5.78;0.37;;;;;;;18.86;100.00;99646.73;1753563;81;21133;-53
2022/05/13 10:22:38;;;;;;;0.42;0.20;;;;;;;18.85;100.00;99648.22;1664307;85;21137;-53
2022/05/13 10:25:15;;;;;;;0.72;0.10;;;;;;;18.87;100.00;99640.78;1755604;81;21037;-54
2022/05/13 10:27:57;;;;;;;1.10;0.15;;;;;;;18.91;100.00;99639.52;1675198;83;21038;-54
2022/05/13 10:30:36;;;;;;;0.17;0.10;;;;;;;18.96;100.00;99640.01;1730060;81;21022;-54
2022/05/13 10:33:11;;;;;;;1.55;0.20;;;;;;;19.05;100.00;99633.78;1752592;81;21021;-53
2022/05/13 10:35:46;;;;;;;0.10;0.10;;;;;;;19.13;100.00;99631.76;1731456;81;21541;-54
2022/05/13 10:38:23;;;;;;;0.30;0.10;;;;;;;19.17;100.00;99630.48;1750142;81;21039;-53
2022/05/13 10:40:50;;;;;;;2.40;0.10;;;;;;;19.18;100.00;99626.76;1670785;85;21476;-54
2022/05/13 10:43:30;;;;;;;0.60;0.20;;;;;;;19.18;100.00;99636.31;1751800;81;21759;-54
2022/05/13 10:46:01;;;;;;;2.85;0.10;;;;;;;19.16;100.00;99628.25;1754524;81;21526;-53
2022/05/13 10:48:29;;;;;;;0.60;0.10;;;;;;;19.13;100.00;99624.94;1754163;81;21546;-53
2022/05/13 10:51:25;;;;;;;0.33;0.20;;;;;;;19.12;100.00;99617.25;1754527;81;21478;-52
2022/05/13 10:54:08;;;;;;;1.70;0.10;;;;;;;19.13;100.00;99614.89;1754849;81;21091;-55
2022/05/13 10:56:53;;;;;;;1.17;0.10;;;;;;;19.17;100.00;99623.16;1756614;81;21032;-54
2022/05/13 10:59:53;;;;;;;2.17;0.10;;;;;;;19.21;100.00;99615.09;1674426;84;21938;-53
2022/05/13 11:02:42;;;;;;;0.42;0.20;;;;;;;19.28;100.00;99608.60;1717199;83;21901;-55
2022/05/13 11:05:32;;;;;;;0.25;0.10;;;;;;;19.39;100.00;99615.88;1688170;84;21459;-54
2022/05/13 11:08:19;;;;;;;0.30;0.10;;;;;;;19.47;100.00;99597.86;1681888;84;20993;-54
2022/05/13 11:11:02;;;;;;;1.20;0.20;;;;;;;19.50;100.00;99593.48;1685453;84;21397;-54
2022/05/13 11:13:48;;;;;;;1.15;0.10;;;;;;;19.56;100.00;99583.38;1671872;84;21078;-56
2022/05/13 11:16:45;;;;;;;0.65;0.10;;;;;;;19.63;100.00;99581.00;1713803;83;21495;-54
2022/05/13 11:19:30;;;;;;;1.92;0.20;;;;;;;19.61;100.00;99585.22;1670297;84;21037;-53
2022/05/13 11:22:28;;;;;;;1.75;0.20;;;;;;;19.59;100.00;99580.39;1716530;83;20860;-53
2022/05/13 11:28:15;;;;;;;0.30;0.10;;;;;;;19.62;100.00;99571.94;1716703;83;20930;-53
2022/05/13 11:30:53;;;;;;;0.60;0.10;;;;;;;19.64;100.00;99583.59;1686741;84;21211;-55
2022/05/13 11:33:43;;;;;;;1.57;0.10;;;;;;;19.63;100.00;99572.81;1677768;84;21100;-53
2022/05/13 11:36:30;;;;;;;1.90;0.17;;;;;;;19.60;100.00;99557.55;1716398;83;20938;-53
2022/05/13 11:39:09;;;;;;;0.40;0.10;;;;;;;19.56;100.00;99567.53;1678734;84;20982;-55
2022/05/13 11:41:47;;;;;;;1.65;0.10;;;;;;;19.54;100.00;99575.84;1716653;83;21476;-54
2022/05/13 11:44:13;;;;;;;1.85;0.10;;;;;;;19.51;100.00;99562.45;1671936;84;21078;-53
2022/05/13 11:46:54;;;;;;;2.58;0.10;;;;;;;19.49;100.00;99562.22;1717481;83;21042;-55
2022/05/13 11:49:29;;;;;;;0.60;0.20;;;;;;;19.50;100.00;99556.63;1688411;84;21016;-53
2022/05/13 11:51:57;;;;;;;1.87;0.10;;;;;;;19.51;100.00;99558.36;1716273;83;20947;-51
2022/05/13 11:54:27;;;;;;;0.75;0.20;;;;;;;19.55;100.00;99557.11;1660551;84;21022;-54
2022/05/13 11:57:23;;;;;;;1.98;0.10;;;;;;;19.57;100.00;99556.44;1729581;81;21094;-53
2022/05/13 11:59:54;;;;;;;4.75;0.10;;;;;;;19.60;100.00;99560.28;1663224;84;20991;-53
2022/05/13 12:02:36;;;;;;;2.12;0.20;;;;;;;19.62;100.00;99543.27;1753324;81;20894;-53
2022/05/13 12:05:20;;;;;;;1.07;0.10;;;;;;;19.64;100.00;99548.10;1665412;85;21432;-53
2022/05/13 12:08:08;;;;;;;0.68;0.20;;;;;;;19.71;100.00;99557.97;1750670;81;20880;-55
2022/05/13 12:11:13;;;;;;;0.20;0.10;;;;;;;19.75;100.00;99548.98;1663428;85;22317;-54
2022/05/13 12:13:55;;;;;;;;;;;;;;;19.79;100.00;99551.83;1703735;81;21470;-53
2022/05/13 12:17:00;;;;;;;0.23;0.20;;;;;;;19.81;100.00;99554.79;1752803;81;20564;-54